createdAt,value
2022-10-10T00:01:26.329Z,8.16
2022-10-10T00:03:53.699Z,8.04
2022-10-10T00:06:21.530Z,8.02
2022-10-10T00:08:48.402Z,8.02
2022-10-10T00:11:16.963Z,8.02
2022-10-10T00:13:43.952Z,7.86
2022-10-10T00:16:10.757Z,7.90
2022-10-10T00:18:38.783Z,7.96
2022-10-10T00:21:05.617Z,7.85
2022-10-10T00:23:32.085Z,7.87
2022-10-10T00:25:58.950Z,7.87
2022-10-10T00:28:25.427Z,7.93
2022-10-10T00:30:52.213Z,7.89
2022-10-10T00:33:19.101Z,7.86
2022-10-10T00:35:45.639Z,7.77
2022-10-10T00:38:13.621Z,7.68
2022-10-10T00:40:52.565Z,7.71
2022-10-10T00:43:19.055Z,7.65
2022-10-10T00:45:47.952Z,7.60
2022-10-10T00:48:28.196Z,7.52
2022-10-10T00:51:06.335Z,7.46
2022-10-10T00:53:36.571Z,7.57
2022-10-10T00:56:04.088Z,7.55
2022-10-10T00:58:32.095Z,7.60
2022-10-10T01:00:58.870Z,7.59
2022-10-10T01:03:25.939Z,7.58
2022-10-10T01:05:52.549Z,7.61
2022-10-10T01:08:20.742Z,7.53
2022-10-10T01:11:05.443Z,7.65
2022-10-10T01:13:46.838Z,7.61
2022-10-10T01:16:24.939Z,7.73
2022-10-10T01:19:20.684Z,7.78
2022-10-10T01:22:10.782Z,7.61
2022-10-10T01:24:57.535Z,7.66
2022-10-10T01:27:33.500Z,7.85
2022-10-10T01:30:13.277Z,7.83
2022-10-10T01:32:53.995Z,7.69
2022-10-10T01:35:33.423Z,7.76
2022-10-10T01:38:25.314Z,7.87
2022-10-10T01:40:56.329Z,7.72
2022-10-10T01:43:26.303Z,7.77
2022-10-10T01:45:54.033Z,7.67
2022-10-10T01:48:26.285Z,7.78
2022-10-10T01:51:18.805Z,7.65
2022-10-10T01:54:27.240Z,7.59
2022-10-10T01:57:14.082Z,7.65
2022-10-10T02:00:28.443Z,7.67
2022-10-10T02:03:16.515Z,7.73
2022-10-10T02:05:46.702Z,7.64
2022-10-10T02:08:26.425Z,7.62
2022-10-10T02:10:58.218Z,7.51
2022-10-10T02:13:30.250Z,7.59
2022-10-10T02:15:59.876Z,7.57
2022-10-10T02:18:31.722Z,7.59
2022-10-10T02:21:00.092Z,7.74
2022-10-10T02:23:26.750Z,7.72
2022-10-10T02:25:56.492Z,7.66
2022-10-10T02:28:51.924Z,7.60
2022-10-10T02:31:38.061Z,7.55
2022-10-10T02:34:08.922Z,7.45
2022-10-10T02:36:36.375Z,7.46
2022-10-10T02:39:03.461Z,7.51
2022-10-10T02:41:31.915Z,7.41
2022-10-10T02:43:58.491Z,7.31
2022-10-10T02:46:24.974Z,7.32
2022-10-10T02:48:51.443Z,7.37
2022-10-10T02:51:18.372Z,7.35
2022-10-10T02:53:44.837Z,7.26
2022-10-10T02:56:11.375Z,7.31
2022-10-10T02:58:37.816Z,7.27
2022-10-10T03:01:04.314Z,7.23
2022-10-10T03:03:30.767Z,7.17
2022-10-10T03:05:57.182Z,7.14
2022-10-10T03:08:23.615Z,7.04
2022-10-10T03:11:01.474Z,7.08
2022-10-10T03:13:28.210Z,7.09
2022-10-10T03:15:54.660Z,7.19
2022-10-10T03:18:21.808Z,7.13
2022-10-10T03:20:54.753Z,7.18
2022-10-10T03:23:22.590Z,7.13
2022-10-10T03:25:49.115Z,7.07
2022-10-10T03:28:16.144Z,7.03
2022-10-10T03:30:43.020Z,7.01
2022-10-10T03:33:10.026Z,6.93
2022-10-10T03:35:36.587Z,6.89
2022-10-10T03:38:03.074Z,6.94
2022-10-10T03:40:30.359Z,6.84
2022-10-10T03:42:57.119Z,6.76
2022-10-10T03:45:24.272Z,6.81
2022-10-10T03:47:50.931Z,6.94
2022-10-10T03:50:17.611Z,6.95
2022-10-10T03:52:44.125Z,6.88
2022-10-10T03:55:10.540Z,6.84
2022-10-10T03:57:37.003Z,6.93
2022-10-10T04:00:04.131Z,6.82
2022-10-10T04:02:30.544Z,6.66
2022-10-10T04:04:57.025Z,6.64
2022-10-10T04:07:23.567Z,6.47
2022-10-10T04:09:50.260Z,6.39
2022-10-10T04:12:16.917Z,6.52
2022-10-10T04:14:43.402Z,6.44
2022-10-10T04:17:10.071Z,6.41
2022-10-10T04:19:36.523Z,6.44
2022-10-10T04:22:03.206Z,6.40
2022-10-10T04:24:29.752Z,6.52
2022-10-10T04:26:56.251Z,6.56
2022-10-10T04:29:23.000Z,6.50
2022-10-10T04:31:49.547Z,6.42
2022-10-10T04:34:16.137Z,6.47
2022-10-10T04:36:42.721Z,6.40
2022-10-10T04:39:09.293Z,6.43
2022-10-10T04:41:35.695Z,6.34
2022-10-10T04:44:02.172Z,6.34
2022-10-10T04:46:28.609Z,6.37
2022-10-10T04:48:55.095Z,6.31
2022-10-10T04:51:21.776Z,6.34
2022-10-10T04:53:50.386Z,6.33
2022-10-10T04:56:17.294Z,6.38
2022-10-10T04:58:43.894Z,6.30
2022-10-10T05:01:10.372Z,6.41
2022-10-10T05:03:36.831Z,6.27
2022-10-10T05:06:03.390Z,6.24
2022-10-10T05:08:30.458Z,6.34
2022-10-10T05:10:56.979Z,6.31
2022-10-10T05:13:23.436Z,6.27
2022-10-10T05:15:51.865Z,6.32
2022-10-10T05:18:19.499Z,6.29
2022-10-10T05:20:47.760Z,6.23
2022-10-10T05:23:15.193Z,6.11
2022-10-10T05:25:51.422Z,6.05
2022-10-10T05:28:17.969Z,6.11
2022-10-10T05:30:44.450Z,6.10
2022-10-10T05:33:11.289Z,6.03
2022-10-10T05:35:37.889Z,6.21
2022-10-10T05:38:05.287Z,6.09
2022-10-10T05:40:31.809Z,6.03
2022-10-10T05:42:58.282Z,6.02
2022-10-10T05:45:24.767Z,6.08
2022-10-10T05:47:51.199Z,6.00
2022-10-10T05:50:39.290Z,6.06
2022-10-10T05:53:06.832Z,6.03
2022-10-10T05:55:33.846Z,6.04
2022-10-10T05:58:00.256Z,6.01
2022-10-10T06:00:26.732Z,5.98
2022-10-10T06:02:54.737Z,6.17
2022-10-10T06:05:21.485Z,6.14
2022-10-10T06:08:04.632Z,6.17
2022-10-10T06:10:35.878Z,6.26
2022-10-10T06:13:02.348Z,6.26
2022-10-10T06:15:28.860Z,6.39
2022-10-10T06:17:55.454Z,6.41
2022-10-10T06:20:21.930Z,6.46
2022-10-10T06:22:48.739Z,6.51
2022-10-10T06:25:38.220Z,6.53
2022-10-10T06:28:02.235Z,6.64
2022-10-10T06:30:28.861Z,6.81
2022-10-10T06:32:57.063Z,6.79
2022-10-10T06:35:24.203Z,6.81
2022-10-10T06:37:50.813Z,7.03
2022-10-10T06:40:17.389Z,7.05
2022-10-10T06:42:43.818Z,7.08
2022-10-10T06:45:10.491Z,7.12
2022-10-10T06:47:36.945Z,7.36
2022-10-10T06:50:03.716Z,7.39
2022-10-10T06:52:30.133Z,7.40
2022-10-10T06:54:56.637Z,7.49
2022-10-10T06:57:23.112Z,7.45
2022-10-10T06:59:49.529Z,7.55
2022-10-10T07:02:15.987Z,7.62
2022-10-10T07:04:42.597Z,7.58
2022-10-10T07:07:09.587Z,7.72
2022-10-10T07:09:36.012Z,7.86
2022-10-10T07:12:02.438Z,7.84
2022-10-10T07:14:28.832Z,7.91
2022-10-10T07:16:55.241Z,8.00
2022-10-10T07:19:24.623Z,8.03
2022-10-10T07:21:51.439Z,8.15
2022-10-10T07:24:17.908Z,8.20
2022-10-10T07:26:44.334Z,8.33
2022-10-10T07:29:10.748Z,8.44
2022-10-10T07:31:37.232Z,8.54
2022-10-10T07:34:05.937Z,8.58
2022-10-10T07:36:32.620Z,8.44
2022-10-10T07:38:59.105Z,8.65
2022-10-10T07:41:25.564Z,8.67
2022-10-10T07:43:56.274Z,8.69
2022-10-10T07:46:23.342Z,8.77
2022-10-10T07:48:49.968Z,8.99
2022-10-10T07:51:17.140Z,8.86
2022-10-10T07:53:44.299Z,9.04
2022-10-10T07:56:11.628Z,9.04
2022-10-10T07:58:38.872Z,9.02
2022-10-10T08:01:10.577Z,9.13
2022-10-10T08:03:37.770Z,9.03
2022-10-10T08:06:06.605Z,9.15
2022-10-10T08:08:34.633Z,9.41
2022-10-10T08:11:05.628Z,9.45
2022-10-10T08:13:32.365Z,9.44
2022-10-10T08:15:58.868Z,9.39
2022-10-10T08:18:25.535Z,9.48
2022-10-10T08:20:59.984Z,9.58
2022-10-10T08:23:26.683Z,9.71
2022-10-10T08:25:53.957Z,9.84
2022-10-10T08:28:20.604Z,9.82
2022-10-10T08:30:47.281Z,9.93
2022-10-10T08:33:13.804Z,9.86
2022-10-10T08:35:40.252Z,9.92
2022-10-10T08:38:07.431Z,9.95
2022-10-10T08:40:33.992Z,10.13
2022-10-10T08:43:07.482Z,10.27
2022-10-10T08:45:34.964Z,10.51
2022-10-10T08:48:05.537Z,10.46
2022-10-10T08:50:46.619Z,10.63
2022-10-10T08:53:20.720Z,10.56
2022-10-10T08:55:49.015Z,10.58
2022-10-10T08:58:18.797Z,10.80
2022-10-10T09:00:54.815Z,10.76
2022-10-10T09:03:32.592Z,10.70
2022-10-10T09:06:04.955Z,10.97
2022-10-10T09:08:45.261Z,11.12
2022-10-10T09:11:42.575Z,11.39
2022-10-10T09:14:26.774Z,11.25
2022-10-10T09:17:03.242Z,11.36
2022-10-10T09:19:32.590Z,11.34
2022-10-10T09:22:05.187Z,11.49
2022-10-10T09:24:42.544Z,11.77
2022-10-10T09:27:16.717Z,11.87
2022-10-10T09:30:05.527Z,12.09
2022-10-10T09:32:43.497Z,12.14
2022-10-10T09:35:17.811Z,12.25
2022-10-10T09:37:47.653Z,12.21
2022-10-10T09:40:53.982Z,12.39
2022-10-10T09:43:21.561Z,12.36
2022-10-10T09:45:58.619Z,12.39
2022-10-10T09:48:32.823Z,12.65
2022-10-10T09:51:01.353Z,12.72
2022-10-10T09:53:28.134Z,12.77
2022-10-10T09:55:55.497Z,12.59
2022-10-10T09:58:32.734Z,12.72
2022-10-10T10:01:24.171Z,12.97
2022-10-10T10:04:30.404Z,12.91
2022-10-10T10:07:04.687Z,12.88
2022-10-10T10:09:31.217Z,13.11
2022-10-10T10:11:58.386Z,13.00
2022-10-10T10:14:31.289Z,13.20
2022-10-10T10:17:10.756Z,13.07
2022-10-10T10:19:42.679Z,13.08
2022-10-10T10:22:38.077Z,13.26
2022-10-10T10:25:32.270Z,12.90
2022-10-10T10:28:11.143Z,13.05
2022-10-10T10:30:40.221Z,13.15
2022-10-10T10:33:52.753Z,13.85
2022-10-10T10:36:53.648Z,15.43
2022-10-10T10:39:44.602Z,16.78
2022-10-10T10:42:34.298Z,16.94
2022-10-10T10:45:22.222Z,17.21
2022-10-10T10:48:07.979Z,17.79
2022-10-10T10:50:37.421Z,18.75
2022-10-10T10:53:26.640Z,18.57
2022-10-10T10:56:14.770Z,19.20
2022-10-10T11:01:56.663Z,20.60
2022-10-10T11:05:18.788Z,21.49
2022-10-10T11:07:55.535Z,20.55
2022-10-10T11:10:29.939Z,19.73
2022-10-10T11:13:11.472Z,19.42
2022-10-10T11:16:05.417Z,20.73
2022-10-10T11:18:38.912Z,21.67
2022-10-10T11:21:16.589Z,20.93
2022-10-10T11:24:10.714Z,20.58
2022-10-10T11:26:46.876Z,21.34
2022-10-10T11:29:21.684Z,20.35
2022-10-10T11:31:57.669Z,19.87
2022-10-10T11:34:33.585Z,20.07
2022-10-10T11:37:14.150Z,20.15
2022-10-10T11:39:58.196Z,19.46
2022-10-10T11:42:31.806Z,19.11
2022-10-10T11:45:21.103Z,19.73
2022-10-10T11:47:58.194Z,19.45
2022-10-10T11:50:34.462Z,18.60
2022-10-10T11:53:23.544Z,20.02
2022-10-10T11:56:09.287Z,20.59
2022-10-10T11:58:42.760Z,22.15
2022-10-10T12:01:23.704Z,21.41
2022-10-10T12:03:52.383Z,21.45
2022-10-10T12:06:28.369Z,21.56
2022-10-10T12:09:14.058Z,20.70
2022-10-10T12:11:53.519Z,21.56
2022-10-10T12:14:22.526Z,21.87
2022-10-10T12:16:49.295Z,21.01
2022-10-10T12:19:18.103Z,22.10
2022-10-10T12:22:08.253Z,23.14
2022-10-10T12:24:42.529Z,22.50
2022-10-10T12:27:25.100Z,21.63
2022-10-10T12:29:57.520Z,21.33
2022-10-10T12:32:50.188Z,19.96
2022-10-10T12:35:33.910Z,18.73
2022-10-10T12:38:22.168Z,19.57
2022-10-10T12:41:12.057Z,20.69
2022-10-10T12:43:42.300Z,20.54
2022-10-10T12:46:22.183Z,19.98
2022-10-10T12:49:22.665Z,18.84
2022-10-10T12:52:09.298Z,17.64
2022-10-10T12:54:42.834Z,17.72
2022-10-10T12:57:17.879Z,18.22
2022-10-10T12:59:45.107Z,19.37
2022-10-10T13:02:28.212Z,20.15
2022-10-10T13:04:57.952Z,17.95
2022-10-10T13:07:25.548Z,19.42
2022-10-10T13:09:54.811Z,20.02
2022-10-10T13:12:28.026Z,19.65
2022-10-10T13:14:56.184Z,18.59
2022-10-10T13:17:24.112Z,18.12
2022-10-10T13:19:51.653Z,17.71
2022-10-10T13:22:18.698Z,18.67
2022-10-10T13:24:49.400Z,19.89
2022-10-10T13:27:19.664Z,19.67
2022-10-10T13:29:46.869Z,19.04
2022-10-10T13:32:16.930Z,20.02
2022-10-10T13:35:20.587Z,18.73
2022-10-10T13:37:59.447Z,18.60
2022-10-10T13:40:27.362Z,18.04
2022-10-10T13:42:54.623Z,18.23
2022-10-10T13:45:36.377Z,17.86
2022-10-10T13:48:02.762Z,18.56
2022-10-10T13:50:42.908Z,18.32
2022-10-10T13:53:23.031Z,19.68
2022-10-10T13:55:50.603Z,19.22
2022-10-10T13:58:17.309Z,19.94
2022-10-10T14:00:53.559Z,19.98
2022-10-10T14:03:20.110Z,18.96
2022-10-10T14:05:46.759Z,18.18
2022-10-10T14:08:19.595Z,18.97
2022-10-10T14:11:18.979Z,19.66
2022-10-10T14:13:53.914Z,21.00
2022-10-10T14:16:20.351Z,20.70
2022-10-10T14:18:47.400Z,19.51
2022-10-10T14:21:14.106Z,18.61
2022-10-10T14:23:40.698Z,17.56
2022-10-10T14:26:12.875Z,17.13
2022-10-10T14:28:39.823Z,16.80
2022-10-10T14:31:06.774Z,16.56
2022-10-10T14:33:33.294Z,16.22
2022-10-10T14:36:00.596Z,16.09
2022-10-10T14:38:27.421Z,16.07
2022-10-10T14:40:54.762Z,15.99
2022-10-10T14:43:22.632Z,16.11
2022-10-10T14:45:50.722Z,15.62
2022-10-10T14:48:17.945Z,15.67
2022-10-10T14:50:47.217Z,15.50
2022-10-10T14:53:14.953Z,15.29
2022-10-10T14:55:45.732Z,15.03
2022-10-10T14:58:18.019Z,15.06
2022-10-10T15:00:44.859Z,15.06
2022-10-10T15:03:11.865Z,15.16
2022-10-10T15:05:38.884Z,14.88
2022-10-10T15:08:05.633Z,15.02
2022-10-10T15:10:34.111Z,14.96
2022-10-10T15:13:01.528Z,14.86
2022-10-10T15:15:28.060Z,14.98
2022-10-10T15:17:54.555Z,14.75
2022-10-10T15:20:24.062Z,14.81
2022-10-10T15:22:50.491Z,14.75
2022-10-10T15:25:17.010Z,14.82
2022-10-10T15:27:43.607Z,14.85
2022-10-10T15:30:10.839Z,14.77
2022-10-10T15:32:39.308Z,14.43
2022-10-10T15:35:06.162Z,14.56
2022-10-10T15:37:32.835Z,14.47
2022-10-10T15:39:59.596Z,14.40
2022-10-10T15:42:26.182Z,14.27
2022-10-10T15:44:52.680Z,14.22
2022-10-10T15:47:20.270Z,14.40
2022-10-10T15:49:46.788Z,14.43
2022-10-10T15:52:13.790Z,14.37
2022-10-10T15:54:40.403Z,14.22
2022-10-10T15:57:07.049Z,14.13
2022-10-10T15:59:33.513Z,14.11
2022-10-10T16:02:01.384Z,14.12
2022-10-10T16:04:27.946Z,14.16
2022-10-10T16:07:19.262Z,13.89
2022-10-10T16:09:40.955Z,13.38
2022-10-10T16:12:07.759Z,13.02
2022-10-10T16:14:34.583Z,12.58
2022-10-10T16:17:03.209Z,12.46
2022-10-10T16:19:29.750Z,12.19
2022-10-10T16:21:56.463Z,12.09
2022-10-10T16:24:22.900Z,12.03
2022-10-10T16:26:49.425Z,12.06
2022-10-10T16:29:18.474Z,11.95
2022-10-10T16:31:52.591Z,12.01
2022-10-10T16:34:19.488Z,11.91
2022-10-10T16:36:46.460Z,11.95
2022-10-10T16:39:13.162Z,12.09
2022-10-10T16:41:48.485Z,11.91
2022-10-10T16:44:16.691Z,11.93
2022-10-10T16:46:43.429Z,11.94
2022-10-10T16:49:12.067Z,12.02
2022-10-10T16:51:38.973Z,11.92
2022-10-10T16:54:06.361Z,11.95
2022-10-10T16:56:33.382Z,11.85
2022-10-10T16:59:00.322Z,11.87
2022-10-10T17:01:27.086Z,11.87
2022-10-10T17:03:53.758Z,11.79
2022-10-10T17:06:22.513Z,11.92
2022-10-10T17:08:51.608Z,11.93
2022-10-10T17:11:20.411Z,11.93
2022-10-10T17:13:47.551Z,11.85
2022-10-10T17:19:04.888Z,11.72
2022-10-10T17:21:31.530Z,11.61
2022-10-10T17:23:58.771Z,11.59
2022-10-10T17:26:26.279Z,11.44
2022-10-10T17:28:57.421Z,11.09
2022-10-10T17:31:24.276Z,10.89
2022-10-10T17:33:53.894Z,10.67
2022-10-10T17:36:23.438Z,10.74
2022-10-10T17:38:50.525Z,10.57
2022-10-10T17:41:18.726Z,10.47
2022-10-10T17:43:45.589Z,10.50
2022-10-10T17:46:33.734Z,10.31
2022-10-10T17:49:01.912Z,10.37
2022-10-10T17:51:28.458Z,10.35
2022-10-10T17:53:54.887Z,10.32
2022-10-10T17:56:22.585Z,10.36
2022-10-10T17:58:50.147Z,10.37
2022-10-10T18:01:18.931Z,10.21
2022-10-10T18:03:46.012Z,10.14
2022-10-10T18:06:15.180Z,10.13
2022-10-10T18:08:41.925Z,10.07
2022-10-10T18:11:14.028Z,10.00
2022-10-10T18:13:40.624Z,10.09
2022-10-10T18:16:12.880Z,10.04
2022-10-10T18:18:41.202Z,9.79
2022-10-10T18:21:08.466Z,9.75
2022-10-10T18:23:35.888Z,9.63
2022-10-10T18:26:07.804Z,9.54
2022-10-10T18:28:36.948Z,9.61
2022-10-10T18:31:13.445Z,9.60
2022-10-10T18:33:41.356Z,9.58
2022-10-10T18:36:09.868Z,9.46
2022-10-10T18:38:37.795Z,9.51
2022-10-10T18:41:11.292Z,9.47
2022-10-10T18:43:39.503Z,9.53
2022-10-10T18:46:08.627Z,9.50
2022-10-10T18:48:36.018Z,9.46
2022-10-10T18:51:05.374Z,9.45
2022-10-10T18:53:38.134Z,9.22
2022-10-10T18:56:05.804Z,9.30
2022-10-10T18:58:33.992Z,9.32
2022-10-10T19:01:02.716Z,9.12
2022-10-10T19:03:29.688Z,9.15
2022-10-10T19:05:56.614Z,9.10
2022-10-10T19:08:23.203Z,9.13
2022-10-10T19:10:50.749Z,9.20
2022-10-10T19:13:18.307Z,9.20
2022-10-10T19:15:45.636Z,9.18
2022-10-10T19:18:12.218Z,9.14
2022-10-10T19:20:39.715Z,9.15
2022-10-10T19:23:06.353Z,9.23
2022-10-10T19:25:40.329Z,9.19
2022-10-10T19:28:07.313Z,9.12
2022-10-10T19:30:40.963Z,9.16
2022-10-10T19:33:07.436Z,9.07
2022-10-10T19:35:39.426Z,9.06
2022-10-10T19:38:07.151Z,9.03
2022-10-10T19:40:34.140Z,8.95
2022-10-10T19:43:00.708Z,8.95
2022-10-10T19:45:27.270Z,8.86
2022-10-10T19:47:53.753Z,8.95
2022-10-10T19:50:20.247Z,8.90
2022-10-10T19:52:46.655Z,8.82
2022-10-10T19:55:13.089Z,8.97
2022-10-10T19:57:39.512Z,9.08
2022-10-10T20:00:07.139Z,8.85
2022-10-10T20:02:34.062Z,8.77
2022-10-10T20:05:00.539Z,8.74
2022-10-10T20:07:26.935Z,8.82
2022-10-10T20:09:54.244Z,8.91
2022-10-10T20:12:20.654Z,8.95
2022-10-10T20:14:47.121Z,8.88
2022-10-10T20:17:13.853Z,8.91
2022-10-10T20:19:40.284Z,8.85
2022-10-10T20:22:07.216Z,8.80
2022-10-10T20:24:33.708Z,8.69
2022-10-10T20:27:00.123Z,8.78
2022-10-10T20:29:26.643Z,8.70
2022-10-10T20:31:53.313Z,8.69
2022-10-10T20:34:19.775Z,8.65
2022-10-10T20:36:46.306Z,8.68
2022-10-10T20:39:13.808Z,8.59
2022-10-10T20:41:42.042Z,8.64
2022-10-10T20:44:11.652Z,8.76
2022-10-10T20:46:39.480Z,8.68
2022-10-10T20:49:11.386Z,8.69
2022-10-10T20:51:38.289Z,8.59
2022-10-10T20:54:06.599Z,8.58
2022-10-10T20:56:34.165Z,8.28
2022-10-10T20:59:01.182Z,8.11
2022-10-10T21:01:30.255Z,8.19
2022-10-10T21:03:57.051Z,8.22
2022-10-10T21:06:26.553Z,8.20
2022-10-10T21:08:54.021Z,8.05
2022-10-10T21:11:21.811Z,8.06
2022-10-10T21:13:56.028Z,7.96
2022-10-10T21:16:25.383Z,8.07
2022-10-10T21:18:57.414Z,7.99
2022-10-10T21:21:25.431Z,8.04
2022-10-10T21:23:55.985Z,8.00
2022-10-10T21:26:24.616Z,7.96
2022-10-10T21:28:51.314Z,7.72
2022-10-10T21:31:20.944Z,7.62
2022-10-10T21:33:50.655Z,7.68
2022-10-10T21:36:18.950Z,7.66
2022-10-10T21:38:45.300Z,7.77
2022-10-10T21:41:16.248Z,7.90
2022-10-10T21:43:44.632Z,7.78
2022-10-10T21:46:12.701Z,7.73
2022-10-10T21:48:39.505Z,7.83
2022-10-10T21:51:06.135Z,7.83
2022-10-10T21:53:32.836Z,7.88
2022-10-10T21:55:59.316Z,7.69
2022-10-10T21:58:25.884Z,7.58
2022-10-10T22:00:52.333Z,7.55
2022-10-10T22:03:18.812Z,7.86
2022-10-10T22:05:45.328Z,7.78
2022-10-10T22:08:11.753Z,7.81
2022-10-10T22:10:41.011Z,7.52
2022-10-10T22:13:07.631Z,7.62
2022-10-10T22:15:34.228Z,7.56
2022-10-10T22:18:00.630Z,7.62
2022-10-10T22:20:27.270Z,7.64
2022-10-10T22:22:53.655Z,7.48
2022-10-10T22:25:20.206Z,7.69
2022-10-10T22:27:46.636Z,7.51
2022-10-10T22:30:13.966Z,7.61
2022-10-10T22:32:40.424Z,7.38
2022-10-10T22:35:07.305Z,7.63
2022-10-10T22:37:33.783Z,7.45
2022-10-10T22:40:00.195Z,7.67
2022-10-10T22:42:26.601Z,7.52
2022-10-10T22:44:53.064Z,7.45
2022-10-10T22:47:19.479Z,7.43
2022-10-10T22:49:45.892Z,7.46
2022-10-10T22:52:12.291Z,7.39
2022-10-10T22:54:38.700Z,7.34
2022-10-10T22:57:05.131Z,7.24
2022-10-10T22:59:31.549Z,7.28
2022-10-10T23:01:57.945Z,7.22
2022-10-10T23:04:24.369Z,7.18
2022-10-10T23:06:50.913Z,7.22
2022-10-10T23:09:17.712Z,7.13
2022-10-10T23:11:44.152Z,7.33
2022-10-10T23:14:10.707Z,7.39
2022-10-10T23:16:40.521Z,7.19
2022-10-10T23:19:07.462Z,7.34
2022-10-10T23:21:33.934Z,7.08
2022-10-10T23:24:00.359Z,6.96
2022-10-10T23:26:26.876Z,6.98
2022-10-10T23:28:53.420Z,7.08
2022-10-10T23:31:19.874Z,7.09
2022-10-10T23:33:46.349Z,7.13
2022-10-10T23:36:14.705Z,6.97
2022-10-10T23:38:41.526Z,6.93
2022-10-10T23:41:13.427Z,6.77
2022-10-10T23:43:39.877Z,6.81
2022-10-10T23:46:07.162Z,6.98
2022-10-10T23:48:34.219Z,6.87
2022-10-10T23:51:00.898Z,6.79
2022-10-10T23:53:27.327Z,6.98
2022-10-10T23:55:53.751Z,6.88
2022-10-10T23:58:20.182Z,6.87
